Penryn, United Kingdom
Current Conditions -  °F | °C
As of 2:50 PM on Monday 24 Nov 2014 (Local Time) from EGDR Reporting Station
Few Clouds Few Clouds  
Wind Chill: 45°   Ceiling: Unl
Heat Index: 48°   Visibility: 6mi
Dew Point: 36°   Wind: 7mph
Humidity: 62%   Direction: 50°NE
Pressure: 30.27"   Gusts: NA
Location:  50.17°N, 5.1°W
Report Text: EGDR 241450Z 05006KT 9999 FEW025 09/02 Q1025 BLU NOSIG
Loading
Personal Weather Stations






























Interactive Weather Map New forecast layout! Learn more

10-Day Weather Forecast

Advertisements
Track Severe Weather on mobile